sensor_id;sensor_type;location;lat;lon;timestamp;temperature;humidity
1896;DHT22;1455;51.440;7.308;2022-08-01T00:01:31;20.20;99.90
1896;DHT22;1455;51.440;7.308;2022-08-01T00:04:20;20.30;99.90
1896;DHT22;1455;51.440;7.308;2022-08-01T00:07:07;20.20;99.90
1896;DHT22;1455;51.440;7.308;2022-08-01T00:09:53;20.20;99.90
1896;DHT22;1455;51.440;7.308;2022-08-01T00:12:39;20.20;99.90
1896;DHT22;1455;51.440;7.308;2022-08-01T00:15:25;20.20;99.90
1896;DHT22;1455;51.440;7.308;2022-08-01T00:18:11;20.10;99.90
1896;DHT22;1455;51.440;7.308;2022-08-01T00:21:00;20.00;99.90
1896;DHT22;1455;51.440;7.308;2022-08-01T00:23:46;20.00;99.90
1896;DHT22;1455;51.440;7.308;2022-08-01T00:26:32;20.00;99.90
1896;DHT22;1455;51.440;7.308;2022-08-01T00:31:51;20.00;99.90
1896;DHT22;1455;51.440;7.308;2022-08-01T00:34:37;19.90;99.90
1896;DHT22;1455;51.440;7.308;2022-08-01T00:37:23;19.90;99.90
1896;DHT22;1455;51.440;7.308;2022-08-01T00:40:10;19.90;99.90
1896;DHT22;1455;51.440;7.308;2022-08-01T00:42:56;19.90;99.90
1896;DHT22;1455;51.440;7.308;2022-08-01T00:45:42;19.90;99.90
1896;DHT22;1455;51.440;7.308;2022-08-01T00:48:29;19.90;99.90
1896;DHT22;1455;51.440;7.308;2022-08-01T00:51:15;19.90;99.90
1896;DHT22;1455;51.440;7.308;2022-08-01T00:54:01;19.90;99.90
1896;DHT22;1455;51.440;7.308;2022-08-01T00:56:48;19.90;99.90
1896;DHT22;1455;51.440;7.308;2022-08-01T00:59:34;20.00;99.90
1896;DHT22;1455;51.440;7.308;2022-08-01T01:02:19;20.00;99.90
1896;DHT22;1455;51.440;7.308;2022-08-01T01:05:06;20.00;99.90
1896;DHT22;1455;51.440;7.308;2022-08-01T01:07:55;20.00;99.90
1896;DHT22;1455;51.440;7.308;2022-08-01T01:10:52;20.00;99.90
1896;DHT22;1455;51.440;7.308;2022-08-01T01:13:45;20.00;99.90
1896;DHT22;1455;51.440;7.308;2022-08-01T01:16:31;20.00;99.90
1896;DHT22;1455;51.440;7.308;2022-08-01T01:19:23;20.00;99.90
1896;DHT22;1455;51.440;7.308;2022-08-01T01:22:27;20.00;99.90
1896;DHT22;1455;51.440;7.308;2022-08-01T01:25:32;20.00;99.90
1896;DHT22;1455;51.440;7.308;2022-08-01T01:28:29;20.10;99.90
1896;DHT22;1455;51.440;7.308;2022-08-01T01:31:20;20.00;99.90
1896;DHT22;1455;51.440;7.308;2022-08-01T01:34:06;20.00;99.90
1896;DHT22;1455;51.440;7.308;2022-08-01T01:36:53;20.00;99.90
1896;DHT22;1455;51.440;7.308;2022-08-01T01:39:40;20.10;99.90
1896;DHT22;1455;51.440;7.308;2022-08-01T01:42:26;20.10;99.90
1896;DHT22;1455;51.440;7.308;2022-08-01T01:45:12;20.10;99.90
1896;DHT22;1455;51.440;7.308;2022-08-01T01:48:00;20.10;99.90
1896;DHT22;1455;51.440;7.308;2022-08-01T01:50:47;20.10;99.90
1896;DHT22;1455;51.440;7.308;2022-08-01T01:53:34;20.10;99.90
1896;DHT22;1455;51.440;7.308;2022-08-01T01:56:20;20.10;99.90
1896;DHT22;1455;51.440;7.308;2022-08-01T01:59:09;20.00;99.90
1896;DHT22;1455;51.440;7.308;2022-08-01T02:01:56;20.00;99.90
1896;DHT22;1455;51.440;7.308;2022-08-01T02:04:45;20.00;99.90
1896;DHT22;1455;51.440;7.308;2022-08-01T02:07:32;19.90;99.90
1896;DHT22;1455;51.440;7.308;2022-08-01T02:10:18;20.00;99.90
1896;DHT22;1455;51.440;7.308;2022-08-01T02:13:05;20.00;99.90
1896;DHT22;1455;51.440;7.308;2022-08-01T02:15:51;20.00;99.90
1896;DHT22;1455;51.440;7.308;2022-08-01T02:18:37;20.00;99.90
1896;DHT22;1455;51.440;7.308;2022-08-01T02:21:26;20.00;99.90
1896;DHT22;1455;51.440;7.308;2022-08-01T02:24:14;19.90;99.90
1896;DHT22;1455;51.440;7.308;2022-08-01T02:27:11;20.00;99.90
1896;DHT22;1455;51.440;7.308;2022-08-01T02:30:00;20.00;99.90
1896;DHT22;1455;51.440;7.308;2022-08-01T02:32:49;20.00;99.90
1896;DHT22;1455;51.440;7.308;2022-08-01T02:35:37;20.00;99.90
1896;DHT22;1455;51.440;7.308;2022-08-01T02:38:27;20.00;99.90
1896;DHT22;1455;51.440;7.308;2022-08-01T02:41:16;19.90;99.90
1896;DHT22;1455;51.440;7.308;2022-08-01T02:44:07;20.00;99.90
1896;DHT22;1455;51.440;7.308;2022-08-01T02:46:57;19.90;99.90
1896;DHT22;1455;51.440;7.308;2022-08-01T02:49:47;19.90;99.90
1896;DHT22;1455;51.440;7.308;2022-08-01T02:52:33;19.90;99.90
1896;DHT22;1455;51.440;7.308;2022-08-01T02:55:22;19.90;99.90
1896;DHT22;1455;51.440;7.308;2022-08-01T02:58:08;19.90;99.90
1896;DHT22;1455;51.440;7.308;2022-08-01T03:00:55;20.00;99.90
1896;DHT22;1455;51.440;7.308;2022-08-01T03:03:41;20.00;99.90
1896;DHT22;1455;51.440;7.308;2022-08-01T03:06:30;20.00;99.90
1896;DHT22;1455;51.440;7.308;2022-08-01T03:09:16;20.00;99.90
1896;DHT22;1455;51.440;7.308;2022-08-01T03:12:11;20.00;99.90
1896;DHT22;1455;51.440;7.308;2022-08-01T03:14:57;20.00;99.90
1896;DHT22;1455;51.440;7.308;2022-08-01T03:17:45;20.00;99.90
1896;DHT22;1455;51.440;7.308;2022-08-01T03:20:33;20.00;99.90
1896;DHT22;1455;51.440;7.308;2022-08-01T03:23:19;20.10;99.90
1896;DHT22;1455;51.440;7.308;2022-08-01T03:26:05;20.10;99.90
1896;DHT22;1455;51.440;7.308;2022-08-01T03:28:52;20.10;99.90
1896;DHT22;1455;51.440;7.308;2022-08-01T03:31:40;20.10;99.90
1896;DHT22;1455;51.440;7.308;2022-08-01T03:34:29;20.10;99.90
1896;DHT22;1455;51.440;7.308;2022-08-01T03:37:20;20.10;99.90
1896;DHT22;1455;51.440;7.308;2022-08-01T03:40:13;20.00;99.90
1896;DHT22;1455;51.440;7.308;2022-08-01T03:43:05;20.00;99.90
1896;DHT22;1455;51.440;7.308;2022-08-01T03:45:54;20.00;99.90
1896;DHT22;1455;51.440;7.308;2022-08-01T03:48:48;20.00;99.90
1896;DHT22;1455;51.440;7.308;2022-08-01T03:51:36;20.00;99.90
1896;DHT22;1455;51.440;7.308;2022-08-01T03:54:24;20.00;99.90
1896;DHT22;1455;51.440;7.308;2022-08-01T03:57:12;20.00;99.90
1896;DHT22;1455;51.440;7.308;2022-08-01T04:00:03;20.00;99.90
1896;DHT22;1455;51.440;7.308;2022-08-01T04:02:54;20.00;99.90
1896;DHT22;1455;51.440;7.308;2022-08-01T04:05:41;20.10;99.90
1896;DHT22;1455;51.440;7.308;2022-08-01T04:08:36;20.10;99.90
1896;DHT22;1455;51.440;7.308;2022-08-01T04:11:25;20.10;99.90
1896;DHT22;1455;51.440;7.308;2022-08-01T04:14:15;20.10;99.90
1896;DHT22;1455;51.440;7.308;2022-08-01T04:17:00;20.10;99.90
1896;DHT22;1455;51.440;7.308;2022-08-01T04:19:48;20.10;99.90
1896;DHT22;1455;51.440;7.308;2022-08-01T04:22:33;20.10;99.90
1896;DHT22;1455;51.440;7.308;2022-08-01T04:25:35;20.10;99.90
1896;DHT22;1455;51.440;7.308;2022-08-01T04:28:23;20.10;99.90
1896;DHT22;1455;51.440;7.308;2022-08-01T04:31:10;20.10;99.90
1896;DHT22;1455;51.440;7.308;2022-08-01T04:33:59;20.20;99.90
1896;DHT22;1455;51.440;7.308;2022-08-01T04:36:49;20.10;99.90
1896;DHT22;1455;51.440;7.308;2022-08-01T04:39:36;20.20;99.90
1896;DHT22;1455;51.440;7.308;2022-08-01T04:42:24;20.20;99.90
1896;DHT22;1455;51.440;7.308;2022-08-01T04:45:13;20.20;99.90
1896;DHT22;1455;51.440;7.308;2022-08-01T04:48:05;20.20;99.90
1896;DHT22;1455;51.440;7.308;2022-08-01T04:50:52;20.20;99.90
1896;DHT22;1455;51.440;7.308;2022-08-01T04:53:40;20.30;99.90
1896;DHT22;1455;51.440;7.308;2022-08-01T04:56:26;20.30;99.90
1896;DHT22;1455;51.440;7.308;2022-08-01T04:59:12;20.30;99.90
1896;DHT22;1455;51.440;7.308;2022-08-01T05:02:17;20.30;99.90
1896;DHT22;1455;51.440;7.308;2022-08-01T05:05:05;20.30;99.90
1896;DHT22;1455;51.440;7.308;2022-08-01T05:07:51;20.30;99.90
1896;DHT22;1455;51.440;7.308;2022-08-01T05:10:38;20.30;99.90
1896;DHT22;1455;51.440;7.308;2022-08-01T05:13:24;20.30;99.90
1896;DHT22;1455;51.440;7.308;2022-08-01T05:16:10;20.40;99.90
1896;DHT22;1455;51.440;7.308;2022-08-01T05:18:56;20.40;99.90
1896;DHT22;1455;51.440;7.308;2022-08-01T05:21:43;20.40;99.90
1896;DHT22;1455;51.440;7.308;2022-08-01T05:24:29;20.40;99.90
1896;DHT22;1455;51.440;7.308;2022-08-01T05:27:16;20.50;99.90
1896;DHT22;1455;51.440;7.308;2022-08-01T05:30:03;20.50;99.90
1896;DHT22;1455;51.440;7.308;2022-08-01T05:32:48;20.50;99.90
1896;DHT22;1455;51.440;7.308;2022-08-01T05:35:37;20.50;99.90
1896;DHT22;1455;51.440;7.308;2022-08-01T05:38:24;20.50;99.90
1896;DHT22;1455;51.440;7.308;2022-08-01T05:41:11;20.60;99.90
1896;DHT22;1455;51.440;7.308;2022-08-01T05:44:00;20.60;99.90
1896;DHT22;1455;51.440;7.308;2022-08-01T05:46:46;20.60;99.90
1896;DHT22;1455;51.440;7.308;2022-08-01T05:49:32;20.60;99.90
1896;DHT22;1455;51.440;7.308;2022-08-01T05:52:19;20.60;99.90
1896;DHT22;1455;51.440;7.308;2022-08-01T05:55:09;20.70;99.90
1896;DHT22;1455;51.440;7.308;2022-08-01T05:57:59;20.70;99.90
1896;DHT22;1455;51.440;7.308;2022-08-01T06:00:55;20.70;99.90
1896;DHT22;1455;51.440;7.308;2022-08-01T06:03:46;20.70;99.90
1896;DHT22;1455;51.440;7.308;2022-08-01T06:07:00;20.70;99.90
1896;DHT22;1455;51.440;7.308;2022-08-01T06:09:47;20.70;99.90
1896;DHT22;1455;51.440;7.308;2022-08-01T06:12:35;20.70;99.90
1896;DHT22;1455;51.440;7.308;2022-08-01T06:15:24;20.70;99.90
1896;DHT22;1455;51.440;7.308;2022-08-01T06:18:12;20.70;99.90
1896;DHT22;1455;51.440;7.308;2022-08-01T06:21:03;20.80;99.90
1896;DHT22;1455;51.440;7.308;2022-08-01T06:23:51;20.80;99.90
1896;DHT22;1455;51.440;7.308;2022-08-01T06:26:37;20.80;99.90
1896;DHT22;1455;51.440;7.308;2022-08-01T06:29:25;20.90;99.90
1896;DHT22;1455;51.440;7.308;2022-08-01T06:32:13;20.90;99.90
1896;DHT22;1455;51.440;7.308;2022-08-01T06:35:16;21.00;99.90
1896;DHT22;1455;51.440;7.308;2022-08-01T06:38:10;21.10;99.90
1896;DHT22;1455;51.440;7.308;2022-08-01T06:40:56;21.20;99.90
1896;DHT22;1455;51.440;7.308;2022-08-01T06:43:59;21.20;99.90
1896;DHT22;1455;51.440;7.308;2022-08-01T06:46:56;21.30;99.90
1896;DHT22;1455;51.440;7.308;2022-08-01T06:49:52;21.30;99.90
1896;DHT22;1455;51.440;7.308;2022-08-01T06:53:04;21.30;99.90
1896;DHT22;1455;51.440;7.308;2022-08-01T06:56:07;21.20;99.90
1896;DHT22;1455;51.440;7.308;2022-08-01T06:58:56;21.20;99.90
1896;DHT22;1455;51.440;7.308;2022-08-01T07:01:55;21.30;99.90
1896;DHT22;1455;51.440;7.308;2022-08-01T07:05:12;21.30;99.90
1896;DHT22;1455;51.440;7.308;2022-08-01T07:08:08;21.40;99.90
1896;DHT22;1455;51.440;7.308;2022-08-01T07:11:05;21.50;99.90
1896;DHT22;1455;51.440;7.308;2022-08-01T07:14:04;21.60;99.90
1896;DHT22;1455;51.440;7.308;2022-08-01T07:17:01;21.80;99.90
1896;DHT22;1455;51.440;7.308;2022-08-01T07:19:53;21.90;99.90
1896;DHT22;1455;51.440;7.308;2022-08-01T07:22:41;22.10;99.90
1896;DHT22;1455;51.440;7.308;2022-08-01T07:25:29;22.30;99.90
1896;DHT22;1455;51.440;7.308;2022-08-01T07:28:15;22.50;99.90
1896;DHT22;1455;51.440;7.308;2022-08-01T07:31:01;22.70;99.90
1896;DHT22;1455;51.440;7.308;2022-08-01T07:33:47;23.10;99.90
1896;DHT22;1455;51.440;7.308;2022-08-01T07:36:33;23.20;99.90
1896;DHT22;1455;51.440;7.308;2022-08-01T07:39:19;23.90;99.90
1896;DHT22;1455;51.440;7.308;2022-08-01T07:42:15;24.60;99.90
1896;DHT22;1455;51.440;7.308;2022-08-01T07:45:07;25.40;99.90
1896;DHT22;1455;51.440;7.308;2022-08-01T07:47:54;25.90;99.90
1896;DHT22;1455;51.440;7.308;2022-08-01T07:50:42;26.50;99.90
1896;DHT22;1455;51.440;7.308;2022-08-01T07:53:28;26.90;99.90
1896;DHT22;1455;51.440;7.308;2022-08-01T07:56:21;26.40;99.90
1896;DHT22;1455;51.440;7.308;2022-08-01T07:59:25;25.60;99.90
1896;DHT22;1455;51.440;7.308;2022-08-01T08:02:11;24.80;99.90
1896;DHT22;1455;51.440;7.308;2022-08-01T08:04:57;25.20;99.90
1896;DHT22;1455;51.440;7.308;2022-08-01T08:07:48;25.60;99.90
1896;DHT22;1455;51.440;7.308;2022-08-01T08:10:38;26.30;99.90
1896;DHT22;1455;51.440;7.308;2022-08-01T08:13:43;27.20;99.90
1896;DHT22;1455;51.440;7.308;2022-08-01T08:16:41;27.90;99.90
1896;DHT22;1455;51.440;7.308;2022-08-01T08:19:32;28.20;99.90
1896;DHT22;1455;51.440;7.308;2022-08-01T08:22:23;27.90;99.90
1896;DHT22;1455;51.440;7.308;2022-08-01T08:25:13;27.00;99.90
1896;DHT22;1455;51.440;7.308;2022-08-01T08:28:00;26.40;99.90
1896;DHT22;1455;51.440;7.308;2022-08-01T08:30:58;26.30;99.90
1896;DHT22;1455;51.440;7.308;2022-08-01T08:37:47;25.60;99.90
1896;DHT22;1455;51.440;7.308;2022-08-01T08:40:36;25.20;99.90
1896;DHT22;1455;51.440;7.308;2022-08-01T08:43:23;24.80;99.90
1896;DHT22;1455;51.440;7.308;2022-08-01T08:46:24;24.80;99.90
1896;DHT22;1455;51.440;7.308;2022-08-01T08:49:42;24.80;99.90
1896;DHT22;1455;51.440;7.308;2022-08-01T08:53:11;24.70;99.90
1896;DHT22;1455;51.440;7.308;2022-08-01T08:56:37;24.60;99.90
1896;DHT22;1455;51.440;7.308;2022-08-01T08:59:37;24.70;99.90
1896;DHT22;1455;51.440;7.308;2022-08-01T09:02:31;24.70;99.90
1896;DHT22;1455;51.440;7.308;2022-08-01T09:06:04;24.80;99.90
1896;DHT22;1455;51.440;7.308;2022-08-01T09:09:12;24.70;99.90
1896;DHT22;1455;51.440;7.308;2022-08-01T09:12:38;24.50;99.90
1896;DHT22;1455;51.440;7.308;2022-08-01T09:15:42;24.50;99.90
1896;DHT22;1455;51.440;7.308;2022-08-01T09:18:45;24.70;99.90
1896;DHT22;1455;51.440;7.308;2022-08-01T09:21:56;24.90;99.90
1896;DHT22;1455;51.440;7.308;2022-08-01T09:28:34;25.10;99.90
1896;DHT22;1455;51.440;7.308;2022-08-01T09:31:38;25.10;99.90
1896;DHT22;1455;51.440;7.308;2022-08-01T09:35:23;24.80;99.90
1896;DHT22;1455;51.440;7.308;2022-08-01T09:38:17;24.50;99.90
1896;DHT22;1455;51.440;7.308;2022-08-01T09:41:27;24.40;99.90
1896;DHT22;1455;51.440;7.308;2022-08-01T09:44:25;24.40;99.90
1896;DHT22;1455;51.440;7.308;2022-08-01T09:47:38;24.50;99.90
1896;DHT22;1455;51.440;7.308;2022-08-01T09:50:39;24.60;99.90
1896;DHT22;1455;51.440;7.308;2022-08-01T09:53:27;24.90;99.90
1896;DHT22;1455;51.440;7.308;2022-08-01T09:57:07;25.20;99.90
1896;DHT22;1455;51.440;7.308;2022-08-01T10:00:05;25.60;99.90
1896;DHT22;1455;51.440;7.308;2022-08-01T10:03:26;25.90;99.90
1896;DHT22;1455;51.440;7.308;2022-08-01T10:06:26;26.00;99.90
1896;DHT22;1455;51.440;7.308;2022-08-01T10:09:13;26.00;99.90
1896;DHT22;1455;51.440;7.308;2022-08-01T10:12:11;26.00;99.90
1896;DHT22;1455;51.440;7.308;2022-08-01T10:15:22;25.90;99.90
1896;DHT22;1455;51.440;7.308;2022-08-01T10:18:19;25.80;99.90
1896;DHT22;1455;51.440;7.308;2022-08-01T10:21:09;25.60;99.90
1896;DHT22;1455;51.440;7.308;2022-08-01T10:23:58;25.50;99.90
1896;DHT22;1455;51.440;7.308;2022-08-01T10:26:55;25.50;99.90
1896;DHT22;1455;51.440;7.308;2022-08-01T10:29:54;25.50;99.90
1896;DHT22;1455;51.440;7.308;2022-08-01T10:33:05;25.60;99.90
1896;DHT22;1455;51.440;7.308;2022-08-01T10:35:52;25.60;99.90
1896;DHT22;1455;51.440;7.308;2022-08-01T10:38:38;25.70;99.90
1896;DHT22;1455;51.440;7.308;2022-08-01T10:41:38;25.70;99.90
1896;DHT22;1455;51.440;7.308;2022-08-01T10:44:30;25.70;99.90
1896;DHT22;1455;51.440;7.308;2022-08-01T10:47:25;25.60;99.90
1896;DHT22;1455;51.440;7.308;2022-08-01T10:53:53;25.50;99.90
1896;DHT22;1455;51.440;7.308;2022-08-01T10:56:52;25.40;99.90
1896;DHT22;1455;51.440;7.308;2022-08-01T10:59:50;25.30;99.90
1896;DHT22;1455;51.440;7.308;2022-08-01T11:03:06;25.20;99.90
1896;DHT22;1455;51.440;7.308;2022-08-01T11:06:05;25.10;99.90
1896;DHT22;1455;51.440;7.308;2022-08-01T11:09:00;25.00;99.90
1896;DHT22;1455;51.440;7.308;2022-08-01T11:12:19;25.00;99.90
1896;DHT22;1455;51.440;7.308;2022-08-01T11:15:25;25.00;99.90
1896;DHT22;1455;51.440;7.308;2022-08-01T11:18:30;25.10;99.90
1896;DHT22;1455;51.440;7.308;2022-08-01T11:21:16;25.30;99.90
1896;DHT22;1455;51.440;7.308;2022-08-01T11:24:07;25.40;99.90
1896;DHT22;1455;51.440;7.308;2022-08-01T11:30:53;25.40;99.90
1896;DHT22;1455;51.440;7.308;2022-08-01T11:34:19;25.50;99.90
1896;DHT22;1455;51.440;7.308;2022-08-01T11:37:40;25.60;99.90
1896;DHT22;1455;51.440;7.308;2022-08-01T11:40:30;25.60;99.90
1896;DHT22;1455;51.440;7.308;2022-08-01T11:43:31;25.80;99.90
1896;DHT22;1455;51.440;7.308;2022-08-01T11:46:50;26.20;99.90
1896;DHT22;1455;51.440;7.308;2022-08-01T11:49:56;26.50;99.90
1896;DHT22;1455;51.440;7.308;2022-08-01T11:52:58;26.90;99.90
1896;DHT22;1455;51.440;7.308;2022-08-01T11:55:48;27.10;99.90
1896;DHT22;1455;51.440;7.308;2022-08-01T11:58:37;27.00;99.90
1896;DHT22;1455;51.440;7.308;2022-08-01T12:01:41;26.90;99.90
1896;DHT22;1455;51.440;7.308;2022-08-01T12:04:45;26.60;99.90
1896;DHT22;1455;51.440;7.308;2022-08-01T12:07:35;26.30;99.90
1896;DHT22;1455;51.440;7.308;2022-08-01T12:10:23;26.20;99.90
1896;DHT22;1455;51.440;7.308;2022-08-01T12:13:11;26.10;99.90
1896;DHT22;1455;51.440;7.308;2022-08-01T12:16:06;26.00;99.90
1896;DHT22;1455;51.440;7.308;2022-08-01T12:18:57;26.20;99.90
1896;DHT22;1455;51.440;7.308;2022-08-01T12:22:09;26.30;99.90
1896;DHT22;1455;51.440;7.308;2022-08-01T12:25:04;26.40;99.90
1896;DHT22;1455;51.440;7.308;2022-08-01T12:28:06;26.50;99.90
1896;DHT22;1455;51.440;7.308;2022-08-01T12:31:39;26.80;99.90
1896;DHT22;1455;51.440;7.308;2022-08-01T12:34:43;26.90;99.90
1896;DHT22;1455;51.440;7.308;2022-08-01T12:38:06;27.10;99.90
1896;DHT22;1455;51.440;7.308;2022-08-01T12:41:05;27.10;99.90
1896;DHT22;1455;51.440;7.308;2022-08-01T12:44:12;26.90;99.90
1896;DHT22;1455;51.440;7.308;2022-08-01T12:47:22;26.80;99.90
1896;DHT22;1455;51.440;7.308;2022-08-01T12:50:48;26.80;99.90
1896;DHT22;1455;51.440;7.308;2022-08-01T12:54:13;26.80;99.90
1896;DHT22;1455;51.440;7.308;2022-08-01T12:57:30;26.90;99.90
1896;DHT22;1455;51.440;7.308;2022-08-01T13:00:41;26.90;99.90
1896;DHT22;1455;51.440;7.308;2022-08-01T13:03:56;27.00;99.90
1896;DHT22;1455;51.440;7.308;2022-08-01T13:06:56;27.20;99.90
1896;DHT22;1455;51.440;7.308;2022-08-01T13:09:56;27.30;99.90
1896;DHT22;1455;51.440;7.308;2022-08-01T13:13:11;27.20;99.90
1896;DHT22;1455;51.440;7.308;2022-08-01T13:16:11;27.20;99.90
1896;DHT22;1455;51.440;7.308;2022-08-01T13:19:45;27.20;99.90
1896;DHT22;1455;51.440;7.308;2022-08-01T13:22:32;27.00;99.90
1896;DHT22;1455;51.440;7.308;2022-08-01T13:25:32;26.70;99.90
1896;DHT22;1455;51.440;7.308;2022-08-01T13:29:03;26.40;99.90
1896;DHT22;1455;51.440;7.308;2022-08-01T13:31:52;26.10;99.90
1896;DHT22;1455;51.440;7.308;2022-08-01T13:34:48;26.00;99.90
1896;DHT22;1455;51.440;7.308;2022-08-01T13:37:44;26.00;99.90
1896;DHT22;1455;51.440;7.308;2022-08-01T13:40:38;26.20;99.90
1896;DHT22;1455;51.440;7.308;2022-08-01T13:44:09;26.30;99.90
1896;DHT22;1455;51.440;7.308;2022-08-01T13:51:03;26.70;99.90
1896;DHT22;1455;51.440;7.308;2022-08-01T13:58:10;26.90;99.90
1896;DHT22;1455;51.440;7.308;2022-08-01T14:01:29;26.80;99.90
1896;DHT22;1455;51.440;7.308;2022-08-01T14:04:37;26.50;99.90
1896;DHT22;1455;51.440;7.308;2022-08-01T14:07:57;26.30;99.90
